createdAt,value
2018-08-04T00:02:17.771Z,3.87
2018-08-04T00:04:45.416Z,4.20
2018-08-04T00:07:13.127Z,4.33
2018-08-04T00:09:40.987Z,3.57
2018-08-04T00:12:08.759Z,4.07
2018-08-04T00:14:36.731Z,3.63
2018-08-04T00:17:05.823Z,3.87
2018-08-04T00:19:33.800Z,3.90
2018-08-04T00:22:01.519Z,3.77
2018-08-04T00:24:29.310Z,4.90
2018-08-04T00:26:56.996Z,4.57
2018-08-04T00:29:24.731Z,5.00
2018-08-04T00:31:52.465Z,5.27
2018-08-04T00:34:20.362Z,5.33
2018-08-04T00:36:48.060Z,5.23
2018-08-04T00:39:15.748Z,5.77
2018-08-04T00:41:43.724Z,5.30
2018-08-04T00:44:11.414Z,5.50
2018-08-04T00:46:39.074Z,5.60
2018-08-04T00:49:07.044Z,5.30
2018-08-04T00:51:34.724Z,5.17
2018-08-04T00:54:02.374Z,5.27
2018-08-04T00:56:30.345Z,5.70
2018-08-04T00:58:58.100Z,5.40
2018-08-04T01:01:25.759Z,5.17
2018-08-04T01:03:54.045Z,4.83
2018-08-04T01:06:21.701Z,4.57
2018-08-04T01:08:49.689Z,5.30
2018-08-04T01:11:17.433Z,5.33
2018-08-04T01:13:45.101Z,4.90
2018-08-04T01:16:13.191Z,5.30
2018-08-04T01:18:40.892Z,4.80
2018-08-04T01:21:08.536Z,4.87
2018-08-04T01:23:36.028Z,4.30
2018-08-04T01:26:04.012Z,4.70
2018-08-04T01:28:31.666Z,5.17
2018-08-04T01:30:59.360Z,4.70
2018-08-04T01:33:27.304Z,4.67
2018-08-04T01:35:55.024Z,4.77
2018-08-04T01:38:22.728Z,5.30
2018-08-04T01:40:50.475Z,5.27
2018-08-04T01:43:18.128Z,5.13
2018-08-04T01:45:45.837Z,5.23
2018-08-04T01:48:13.696Z,4.83
2018-08-04T01:50:41.405Z,4.70
2018-08-04T01:53:09.218Z,5.10
2018-08-04T01:55:37.067Z,5.10
2018-08-04T01:58:04.838Z,5.07
2018-08-04T02:00:32.744Z,5.53
2018-08-04T02:03:01.144Z,5.27
2018-08-04T02:05:28.881Z,4.80
2018-08-04T02:07:56.610Z,4.87
2018-08-04T02:10:24.263Z,5.00
2018-08-04T02:12:51.923Z,4.80
2018-08-04T02:15:20.106Z,4.90
2018-08-04T02:17:48.690Z,5.40
2018-08-04T02:20:16.343Z,4.73
2018-08-04T02:22:44.077Z,5.13
2018-08-04T02:25:11.728Z,5.20
2018-08-04T02:27:39.364Z,5.50
2018-08-04T02:30:07.500Z,5.03
2018-08-04T02:32:35.198Z,5.27
2018-08-04T02:35:02.937Z,4.80
2018-08-04T02:37:30.925Z,4.83
2018-08-04T02:39:58.669Z,5.07
2018-08-04T02:42:26.345Z,5.23
2018-08-04T02:44:54.296Z,5.70
2018-08-04T02:47:21.979Z,5.53
2018-08-04T02:49:49.609Z,5.90
2018-08-04T02:52:17.501Z,5.87
2018-08-04T02:54:45.214Z,5.97
2018-08-04T02:57:12.918Z,5.77
2018-08-04T02:59:40.874Z,5.63
2018-08-04T03:02:08.525Z,5.80
2018-08-04T03:04:36.169Z,6.27
2018-08-04T03:07:04.173Z,6.40
2018-08-04T03:09:31.834Z,5.93
2018-08-04T03:11:59.460Z,5.77
2018-08-04T03:14:27.582Z,6.03
2018-08-04T03:16:55.200Z,6.80
2018-08-04T03:19:22.869Z,6.40
2018-08-04T03:21:51.006Z,6.03
2018-08-04T03:24:18.789Z,6.13
2018-08-04T03:26:46.766Z,6.83
2018-08-04T03:29:14.923Z,5.50
2018-08-04T03:31:42.615Z,6.23
2018-08-04T03:34:10.290Z,5.67
2018-08-04T03:36:38.221Z,6.27
2018-08-04T03:39:08.197Z,5.73
2018-08-04T03:41:35.896Z,5.60
2018-08-04T03:44:03.904Z,5.80
2018-08-04T03:46:31.580Z,5.13
2018-08-04T03:48:59.256Z,5.30
2018-08-04T03:51:27.399Z,5.40
2018-08-04T03:53:55.048Z,6.40
2018-08-04T03:56:22.948Z,5.67
2018-08-04T03:58:50.724Z,5.63
2018-08-04T04:01:18.423Z,5.73
2018-08-04T04:03:46.425Z,5.77
2018-08-04T04:06:14.151Z,5.43
2018-08-04T04:08:42.019Z,5.80
2018-08-04T04:11:09.719Z,5.47
2018-08-04T04:13:37.421Z,5.80
2018-08-04T04:16:05.409Z,6.37
2018-08-04T04:18:33.075Z,5.97
2018-08-04T04:21:00.821Z,6.27
2018-08-04T04:23:28.597Z,5.63
2018-08-04T04:25:56.304Z,6.17
2018-08-04T04:28:24.346Z,5.23
2018-08-04T04:30:52.045Z,5.93
2018-08-04T04:33:19.693Z,5.80
2018-08-04T04:35:47.317Z,5.40
2018-08-04T04:38:15.221Z,5.40
2018-08-04T04:40:42.881Z,5.17
2018-08-04T04:43:10.543Z,5.63
2018-08-04T04:45:38.420Z,5.23
2018-08-04T04:48:07.146Z,5.70
2018-08-04T04:50:34.968Z,5.43
2018-08-04T04:53:02.605Z,5.97
2018-08-04T04:55:30.299Z,5.30
2018-08-04T04:57:58.151Z,5.70
2018-08-04T05:00:25.774Z,5.33
2018-08-04T05:02:53.402Z,5.57
2018-08-04T05:05:21.403Z,5.50
2018-08-04T05:07:49.069Z,5.63
2018-08-04T05:10:16.680Z,6.20
2018-08-04T05:12:44.724Z,6.03
2018-08-04T05:15:12.865Z,5.73
2018-08-04T05:17:40.606Z,5.40
2018-08-04T05:20:08.352Z,5.73
2018-08-04T05:22:36.023Z,6.23
2018-08-04T05:25:04.693Z,6.30
2018-08-04T05:27:32.373Z,5.80
2018-08-04T05:30:00.107Z,6.00
2018-08-04T05:32:27.986Z,6.60
2018-08-04T05:34:55.625Z,6.07
2018-08-04T05:37:23.401Z,5.87
2018-08-04T05:39:51.442Z,6.30
2018-08-04T05:42:19.132Z,6.40
2018-08-04T05:44:46.811Z,5.97
2018-08-04T05:47:14.712Z,5.87
2018-08-04T05:49:42.405Z,5.63
2018-08-04T05:52:10.064Z,5.93
2018-08-04T05:54:38.274Z,6.10
2018-08-04T05:57:06.011Z,5.93
2018-08-04T05:59:33.784Z,5.87
2018-08-04T06:02:01.517Z,5.43
2018-08-04T06:04:29.215Z,5.77
2018-08-04T06:06:56.876Z,5.60
2018-08-04T06:09:24.869Z,5.93
2018-08-04T06:11:52.664Z,5.67
2018-08-04T06:14:21.100Z,5.27
2018-08-04T06:16:48.757Z,5.87
2018-08-04T06:19:16.406Z,5.50
2018-08-04T06:21:44.503Z,5.77
2018-08-04T06:24:12.277Z,5.30
2018-08-04T06:26:40.508Z,5.77
2018-08-04T06:29:08.544Z,5.67
2018-08-04T06:31:36.356Z,5.37
2018-08-04T06:34:04.549Z,5.33
2018-08-04T06:36:33.084Z,6.27
2018-08-04T06:39:00.959Z,5.63
2018-08-04T06:41:29.933Z,5.07
2018-08-04T06:43:59.105Z,5.53
2018-08-04T06:46:28.652Z,6.10
2018-08-04T06:48:57.451Z,5.67
2018-08-04T06:51:25.337Z,5.50
2018-08-04T06:53:53.100Z,5.43
2018-08-04T06:56:21.060Z,6.13
2018-08-04T06:58:48.959Z,6.13
2018-08-04T07:01:55.085Z,5.73
2018-08-04T07:24:02.634Z,5.57
2018-08-04T07:26:30.258Z,4.27
2018-08-04T07:28:57.906Z,5.47
2018-08-04T07:31:25.596Z,5.83
2018-08-04T07:34:00.610Z,4.67
2018-08-04T07:36:28.328Z,5.00
2018-08-04T07:38:55.998Z,5.43
2018-08-04T07:41:24.287Z,5.20
2018-08-04T07:43:51.971Z,5.50
2018-08-04T07:46:19.630Z,5.10
2018-08-04T07:48:47.558Z,5.50
2018-08-04T07:51:15.250Z,4.87
2018-08-04T07:53:43.342Z,5.17
2018-08-04T07:56:11.082Z,5.43
2018-08-04T07:58:38.725Z,5.40
2018-08-04T08:01:06.558Z,5.73
2018-08-04T08:03:34.422Z,5.57
2018-08-04T08:06:02.068Z,5.07
2018-08-04T08:08:30.100Z,5.17
2018-08-04T08:10:57.766Z,5.17
2018-08-04T08:13:25.458Z,5.00
2018-08-04T08:15:53.244Z,5.13
2018-08-04T08:18:20.989Z,5.43
2018-08-04T08:20:48.666Z,5.13
2018-08-04T08:23:16.308Z,5.20
2018-08-04T08:26:19.241Z,5.43
2018-08-04T08:28:46.884Z,5.10
2018-08-04T08:31:14.474Z,5.60
2018-08-04T08:33:42.257Z,4.40
2018-08-04T08:36:09.959Z,4.23
2018-08-04T08:38:37.993Z,4.13
2018-08-04T08:41:05.701Z,4.23
2018-08-04T08:43:33.386Z,4.10
2018-08-04T08:46:01.261Z,4.60
2018-08-04T08:48:28.913Z,4.93
2018-08-04T08:50:56.614Z,4.53
2018-08-04T08:53:25.654Z,3.60
2018-08-04T08:55:53.449Z,3.60
2018-08-04T08:58:21.143Z,3.83
2018-08-04T09:00:49.133Z,3.77
2018-08-04T09:03:16.911Z,3.90
2018-08-04T09:05:44.916Z,3.60
2018-08-04T09:08:12.624Z,4.03
2018-08-04T09:10:40.276Z,3.97
2018-08-04T09:13:08.399Z,4.00
2018-08-04T09:15:36.193Z,4.23
2018-08-04T09:18:03.944Z,3.80
2018-08-04T09:20:31.600Z,3.77
2018-08-04T09:22:59.491Z,4.07
2018-08-04T09:25:27.204Z,4.00
2018-08-04T09:27:54.852Z,3.93
2018-08-04T09:30:22.899Z,3.97
2018-08-04T09:32:50.592Z,4.00
2018-08-04T09:35:18.312Z,4.13
2018-08-04T09:37:46.963Z,3.60
2018-08-04T09:40:15.224Z,4.00
2018-08-04T09:42:43.829Z,3.47
2018-08-04T09:45:11.914Z,3.53
2018-08-04T09:47:40.393Z,4.00
2018-08-04T09:50:09.915Z,3.87
2018-08-04T09:52:37.877Z,3.87
2018-08-04T09:55:07.081Z,3.77
2018-08-04T09:57:34.888Z,3.80
2018-08-04T10:00:03.706Z,3.80
2018-08-04T10:02:31.359Z,3.47
2018-08-04T10:04:59.241Z,3.77
2018-08-04T10:07:27.026Z,3.60
2018-08-04T10:09:54.709Z,4.03
2018-08-04T10:12:22.637Z,4.40
2018-08-04T10:14:50.326Z,3.53
2018-08-04T10:17:17.977Z,4.07
2018-08-04T10:19:46.185Z,3.40
2018-08-04T10:22:16.158Z,3.90
2018-08-04T10:24:43.776Z,3.60
2018-08-04T10:27:12.270Z,3.77
2018-08-04T10:29:39.870Z,3.50
2018-08-04T10:32:08.224Z,4.00
2018-08-04T10:34:36.337Z,3.80
2018-08-04T10:37:04.000Z,3.90
2018-08-04T10:39:33.016Z,3.77
2018-08-04T10:42:00.849Z,4.07
2018-08-04T10:44:28.572Z,4.17
2018-08-04T10:46:56.218Z,3.90
2018-08-04T10:49:24.191Z,4.03
2018-08-04T10:51:51.845Z,3.87
2018-08-04T10:54:19.429Z,4.30
2018-08-04T10:56:47.205Z,4.43
2018-08-04T10:59:14.864Z,3.90
2018-08-04T11:01:42.877Z,3.63
2018-08-04T11:04:11.936Z,3.63
2018-08-04T11:06:39.674Z,3.63
2018-08-04T11:09:09.048Z,3.90
2018-08-04T11:11:36.995Z,4.00
2018-08-04T11:14:05.402Z,4.07
2018-08-04T11:16:32.997Z,4.00
2018-08-04T11:19:00.915Z,4.10
2018-08-04T11:21:28.655Z,4.07
2018-08-04T11:23:56.549Z,4.10
2018-08-04T11:26:24.205Z,3.90
2018-08-04T11:28:51.865Z,3.83
2018-08-04T11:31:20.054Z,3.77
2018-08-04T11:33:49.608Z,3.90
2018-08-04T11:36:17.405Z,3.60
2018-08-04T11:38:45.709Z,4.30
2018-08-04T11:41:14.950Z,4.57
2018-08-04T11:43:42.754Z,4.17
2018-08-04T11:46:11.308Z,4.03
2018-08-04T11:48:39.025Z,4.30
2018-08-04T11:51:07.182Z,3.97
2018-08-04T11:53:36.176Z,4.10
2018-08-04T11:56:04.139Z,4.67
2018-08-04T11:58:32.981Z,4.50
2018-08-04T12:01:01.066Z,4.57
2018-08-04T12:03:30.177Z,4.70
2018-08-04T12:05:59.769Z,5.50
2018-08-04T12:08:28.396Z,4.60
2018-08-04T12:10:56.061Z,4.90
2018-08-04T12:13:24.724Z,5.10
2018-08-04T12:15:52.684Z,4.30
2018-08-04T12:18:22.034Z,4.40
2018-08-04T12:20:50.295Z,4.60
2018-08-04T12:23:18.225Z,5.13
2018-08-04T12:25:46.241Z,4.50
2018-08-04T12:28:13.939Z,4.53
2018-08-04T12:30:41.546Z,4.60
2018-08-04T12:33:09.809Z,4.70
2018-08-04T12:35:37.502Z,4.23
2018-08-04T12:38:05.155Z,4.57
2018-08-04T12:40:33.066Z,4.80
2018-08-04T12:43:00.660Z,4.30
2018-08-04T12:45:28.309Z,3.73
2018-08-04T12:47:55.965Z,4.47
2018-08-04T12:50:23.609Z,3.80
2018-08-04T12:52:51.242Z,4.53
2018-08-04T12:55:19.096Z,4.30
2018-08-04T12:57:46.741Z,4.17
2018-08-04T13:00:14.393Z,3.97
2018-08-04T13:02:42.656Z,3.57
2018-08-04T13:05:10.325Z,3.67
2018-08-04T13:07:38.063Z,4.20
2018-08-04T13:10:06.069Z,4.23
2018-08-04T13:12:33.727Z,4.47
2018-08-04T13:15:01.988Z,4.10
2018-08-04T13:17:30.073Z,3.93
2018-08-04T13:19:57.774Z,4.47
2018-08-04T13:22:25.529Z,4.00
2018-08-04T13:24:53.604Z,3.97
2018-08-04T13:27:21.244Z,3.87
2018-08-04T13:29:48.939Z,3.60
2018-08-04T13:32:17.332Z,3.80
2018-08-04T13:34:46.086Z,4.07
2018-08-04T13:37:13.933Z,3.73
2018-08-04T13:39:41.587Z,3.87
2018-08-04T13:42:09.481Z,4.13
2018-08-04T13:44:37.230Z,4.10
2018-08-04T13:47:04.954Z,4.10
2018-08-04T13:49:32.704Z,4.20
2018-08-04T13:52:00.732Z,4.37
2018-08-04T13:54:28.682Z,4.30
2018-08-04T13:56:57.277Z,4.07
2018-08-04T13:59:25.625Z,4.20
2018-08-04T14:01:53.530Z,3.87
2018-08-04T14:04:21.364Z,4.30
2018-08-04T14:06:49.130Z,5.17
2018-08-04T14:09:16.845Z,4.60
2018-08-04T14:11:44.706Z,4.30
2018-08-04T14:14:12.647Z,4.60
2018-08-04T14:16:40.472Z,4.07
2018-08-04T14:19:08.480Z,4.57
2018-08-04T14:21:36.101Z,4.20
2018-08-04T14:24:03.700Z,4.27
2018-08-04T14:26:34.354Z,3.73
2018-08-04T14:29:02.251Z,4.30
2018-08-04T14:31:29.851Z,4.50
2018-08-04T14:33:58.310Z,4.37
2018-08-04T14:36:26.402Z,4.83
2018-08-04T14:38:54.228Z,4.50
2018-08-04T14:41:23.638Z,4.30
2018-08-04T14:43:52.288Z,4.70
2018-08-04T14:46:20.157Z,4.27
2018-08-04T14:48:48.213Z,4.13
2018-08-04T14:51:15.908Z,4.60
2018-08-04T14:53:44.052Z,4.37
2018-08-04T14:56:13.116Z,3.93
2018-08-04T14:58:41.227Z,4.30
2018-08-04T15:01:09.874Z,4.30
2018-08-04T15:03:37.989Z,4.87
2018-08-04T15:06:06.248Z,4.40
2018-08-04T15:08:33.868Z,3.90
2018-08-04T15:11:02.443Z,4.70
2018-08-04T15:13:30.109Z,4.50
2018-08-04T15:15:57.853Z,4.67
2018-08-04T15:18:25.434Z,4.30
2018-08-04T15:20:53.098Z,3.73
2018-08-04T15:23:20.921Z,4.07
2018-08-04T15:25:48.562Z,4.60
2018-08-04T15:28:16.217Z,4.13
2018-08-04T15:30:44.639Z,3.77
2018-08-04T15:33:12.742Z,4.27
2018-08-04T15:35:40.305Z,4.53
2018-08-04T15:38:08.237Z,3.67
2018-08-04T15:40:35.812Z,3.80
2018-08-04T15:43:05.533Z,3.47
2018-08-04T15:45:34.736Z,3.53
2018-08-04T15:48:03.027Z,3.23
2018-08-04T15:50:30.747Z,2.93
2018-08-04T15:52:58.893Z,2.47
2018-08-04T15:55:27.672Z,2.30
2018-08-04T15:57:55.682Z,2.80
2018-08-04T16:00:23.914Z,3.33
2018-08-04T16:02:52.273Z,3.10
2018-08-04T16:05:20.374Z,3.50
2018-08-04T16:07:48.011Z,3.90
2018-08-04T16:10:15.866Z,3.73
2018-08-04T16:12:43.721Z,3.57
2018-08-04T16:15:11.665Z,3.53
2018-08-04T16:17:40.124Z,3.33
2018-08-04T16:20:13.517Z,3.03
2018-08-04T16:22:41.398Z,3.00
2018-08-04T16:25:09.065Z,3.00
2018-08-04T16:27:38.201Z,3.40
2018-08-04T16:30:09.410Z,3.10
2018-08-04T16:32:37.108Z,3.60
2018-08-04T16:35:05.161Z,3.50
2018-08-04T16:37:33.080Z,3.70
2018-08-04T16:40:00.931Z,4.00
2018-08-04T16:42:28.529Z,3.70
2018-08-04T16:44:56.731Z,3.90
2018-08-04T16:47:24.468Z,3.57
2018-08-04T16:49:53.101Z,3.50
2018-08-04T16:52:21.824Z,3.43
2018-08-04T16:54:49.463Z,3.67
2018-08-04T16:57:33.118Z,3.43
2018-08-04T17:00:08.059Z,3.33
2018-08-04T17:02:54.604Z,3.43
2018-08-04T17:05:22.313Z,3.20
2018-08-04T17:07:50.336Z,3.67
2018-08-04T17:10:18.263Z,3.53
2018-08-04T17:12:45.923Z,3.43
2018-08-04T17:15:13.521Z,3.73
2018-08-04T17:17:41.392Z,3.67
2018-08-04T17:20:09.035Z,3.43
2018-08-04T17:22:36.937Z,4.00
2018-08-04T17:25:04.558Z,3.23
2018-08-04T17:27:32.148Z,4.13
2018-08-04T17:29:59.906Z,3.73
2018-08-04T17:32:28.043Z,3.50
2018-08-04T17:34:55.776Z,4.40
2018-08-04T17:37:23.975Z,4.37
2018-08-04T17:39:52.017Z,4.63
2018-08-04T17:42:19.638Z,3.93
2018-08-04T17:44:47.255Z,4.13
2018-08-04T17:47:14.932Z,4.10
2018-08-04T17:49:42.545Z,3.43
2018-08-04T17:52:10.172Z,3.40
2018-08-04T17:54:38.019Z,4.13
2018-08-04T17:57:05.762Z,4.33
2018-08-04T18:09:19.460Z,3.80
2018-08-04T18:11:47.072Z,2.77
2018-08-04T18:14:15.148Z,4.17
2018-08-04T18:16:42.713Z,3.67
2018-08-04T18:19:10.371Z,4.13
2018-08-04T18:21:37.993Z,3.53
2018-08-04T18:24:05.796Z,3.73
2018-08-04T18:26:33.597Z,4.23
2018-08-04T18:29:01.237Z,4.00
2018-08-04T18:31:29.213Z,3.87
2018-08-04T18:33:56.896Z,3.80
2018-08-04T18:36:24.480Z,3.80
2018-08-04T18:38:51.921Z,4.27
2018-08-04T18:41:19.999Z,4.40
2018-08-04T18:43:47.645Z,4.53
2018-08-04T18:46:15.216Z,4.10
2018-08-04T18:48:43.221Z,4.30
2018-08-04T18:51:10.938Z,4.67
2018-08-04T18:53:38.535Z,4.70
2018-08-04T18:56:06.715Z,3.97
2018-08-04T18:58:34.413Z,4.33
2018-08-04T19:01:02.030Z,4.07
2018-08-04T19:03:29.918Z,4.90
2018-08-04T19:05:57.652Z,5.00
2018-08-04T19:08:25.270Z,4.57
2018-08-04T19:10:52.912Z,4.43
2018-08-04T19:13:20.810Z,4.67
2018-08-04T19:15:53.079Z,4.70
2018-08-04T19:18:21.045Z,4.40
2018-08-04T19:20:48.713Z,4.93
2018-08-04T19:23:16.328Z,4.67
2018-08-04T19:25:44.460Z,4.97
2018-08-04T19:28:12.166Z,4.90
2018-08-04T19:30:39.759Z,4.97
2018-08-04T19:33:07.529Z,5.50
2018-08-04T19:35:34.922Z,5.60
2018-08-04T19:38:02.794Z,5.00
2018-08-04T19:40:30.429Z,5.00
2018-08-04T19:42:58.035Z,4.83
2018-08-04T19:45:26.493Z,4.67
2018-08-04T19:47:54.090Z,4.60
2018-08-04T19:50:21.715Z,5.43
2018-08-04T19:52:49.925Z,5.03
2018-08-04T19:55:17.544Z,5.23
2018-08-04T19:57:45.145Z,4.70
2018-08-04T20:00:13.136Z,4.60
2018-08-04T20:02:40.724Z,4.73
2018-08-04T20:05:08.354Z,4.60
2018-08-04T20:07:36.257Z,4.57
2018-08-04T20:10:04.347Z,4.50
2018-08-04T20:12:32.387Z,4.97
2018-08-04T20:15:00.457Z,4.80
2018-08-04T20:17:28.045Z,4.73
2018-08-04T20:19:55.648Z,5.20
2018-08-04T20:22:23.605Z,5.23
2018-08-04T20:24:51.218Z,4.70
2018-08-04T20:27:18.829Z,4.67
2018-08-04T20:29:46.668Z,4.80
2018-08-04T20:32:15.073Z,5.07
2018-08-04T20:34:42.922Z,5.13
2018-08-04T20:37:10.584Z,5.03
2018-08-04T20:39:38.240Z,4.93
2018-08-04T20:42:06.321Z,5.30
2018-08-04T20:44:33.967Z,4.93
2018-08-04T20:47:01.878Z,5.10
2018-08-04T20:49:29.458Z,5.13
2018-08-04T20:51:57.092Z,5.13
2018-08-04T20:54:24.845Z,5.23
2018-08-04T20:56:52.604Z,5.53
2018-08-04T20:59:20.240Z,5.20
2018-08-04T21:01:57.958Z,5.60
2018-08-04T21:04:26.198Z,5.00
2018-08-04T21:06:53.838Z,5.73
2018-08-04T21:09:21.925Z,5.17
2018-08-04T21:11:50.968Z,5.37
2018-08-04T21:14:19.904Z,5.47
2018-08-04T21:16:48.398Z,4.90
2018-08-04T21:19:16.245Z,4.97
2018-08-04T21:21:44.247Z,5.87
2018-08-04T21:24:11.885Z,5.87
2018-08-04T21:26:39.577Z,5.27
2018-08-04T21:29:07.468Z,6.07
2018-08-04T21:31:35.107Z,5.53
2018-08-04T21:34:02.787Z,5.70
2018-08-04T21:36:30.609Z,5.43
2018-08-04T21:38:58.198Z,5.50
2018-08-04T21:41:26.279Z,5.77
2018-08-04T21:43:54.380Z,5.63
2018-08-04T21:46:22.768Z,6.03
2018-08-04T21:48:50.137Z,5.20
2018-08-04T21:51:17.862Z,5.80
2018-08-04T21:53:46.068Z,6.53
2018-08-04T21:56:13.794Z,5.70
2018-08-04T21:58:41.691Z,5.73
2018-08-04T22:01:12.080Z,5.63
2018-08-04T22:03:40.485Z,6.23
2018-08-04T22:06:08.122Z,6.00
2018-08-04T22:08:53.676Z,5.47
2018-08-04T22:11:21.269Z,5.47
2018-08-04T22:13:49.317Z,5.67
2018-08-04T22:16:16.968Z,5.33
2018-08-04T22:18:44.603Z,5.60
2018-08-04T22:21:12.934Z,5.37
2018-08-04T22:23:40.611Z,6.13
2018-08-04T22:26:08.285Z,5.60
2018-08-04T22:28:36.128Z,5.33
2018-08-04T22:31:03.768Z,5.50
2018-08-04T22:33:31.358Z,5.27
2018-08-04T22:35:59.120Z,5.53
2018-08-04T22:38:26.767Z,5.70
2018-08-04T22:40:54.413Z,5.53
2018-08-04T22:43:22.345Z,5.47
2018-08-04T22:46:10.257Z,5.63
2018-08-04T22:48:38.376Z,5.53
2018-08-04T22:51:06.021Z,5.73
2018-08-04T22:53:33.961Z,5.47
2018-08-04T22:56:01.845Z,5.80
2018-08-04T22:58:29.530Z,6.20
2018-08-04T23:00:57.209Z,5.83
2018-08-04T23:03:26.084Z,5.90
2018-08-04T23:05:53.810Z,6.13
2018-08-04T23:08:21.452Z,6.30
2018-08-04T23:10:49.402Z,6.20
2018-08-04T23:13:17.212Z,5.97
2018-08-04T23:15:45.873Z,6.30
2018-08-04T23:18:13.724Z,5.57
2018-08-04T23:20:41.465Z,5.57
2018-08-04T23:23:10.748Z,5.90
2018-08-04T23:25:38.685Z,5.90
2018-08-04T23:28:06.861Z,6.20
2018-08-04T23:30:34.817Z,5.70
2018-08-04T23:33:02.458Z,5.93
2018-08-04T23:35:30.642Z,6.47
2018-08-04T23:37:58.531Z,5.93
2018-08-04T23:40:26.241Z,6.67
2018-08-04T23:42:53.919Z,6.03
2018-08-04T23:45:21.565Z,5.60
2018-08-04T23:47:49.008Z,6.03
2018-08-04T23:50:16.839Z,5.87
2018-08-04T23:52:44.473Z,5.87
2018-08-04T23:55:12.085Z,6.43
2018-08-04T23:57:40.195Z,6.23
